CWSA

Sable Island Airport

Nova Scotia, Canada
METAR CWSA 182000Z AUTO 09011KT 9SM SCT045 OVC100 M00/M03 A3022 RMK SLP236
Observed Flight Rules
Jan-18 @ 20:00 UTC (50 minutes ago) Visual Flight Rules
Wind Visibility Clouds
90° at 11 knots 9 miles
  • Scattered at 4,500' AGL
  • Overcast at 10,000' AGL
Temperatures Readings
Current 0°C / 32°F
Dewpoint -3°C / 27°F
Humidity 80%
Altimeter 30.22" Hg
Pressure 1023.6 hPa
Elevation 4
METAR CWSA 182000Z AUTO 09011KT 9SM SCT045 OVC100 M00/M03 A3022 RMK SLP236
Observed Flight Rules
Jan-18 @ 20:00 UTC
(50 minutes ago)
VFR
Wind Visibility
90° at 11 knots 9 miles
Clouds
  • Scattered at 4,500' AGL
  • Overcast at 10,000' AGL
Temperature Dewpoint
0°C / 32°F -3°C / 27°F
Humidity Altimeter Pressure
80% 30.22" Hg 1023.6 hPa